Time;durP1;ratioP1;P1;durP2;ratioP2;P2;SDS_P1;SDS_P2;PMS_P1;PMS_P2;Temp;Humidity;BMP_temperature;BMP_pressure;BME280_temperature;BME280_humidity;BME280_pressure;Samples;Min_cycle;Max_cycle;Signal;HPM_P1;HPM_P2
2022/06/06 00:00:01;;;;;;;1.6;1.5;;;;;;;14.6;100.0;101150;;;;
2022/06/06 00:01:00;;;;;;;1.2;1.2;;;;;;;14.6;100.0;101150;;;;
2022/06/06 00:02:00;;;;;;;1.2;1.2;;;;;;;14.6;100.0;101150;;;;
2022/06/06 00:03:01;;;;;;;1.2;1.2;;;;;;;14.6;100.0;101150;;;;
2022/06/06 00:04:00;;;;;;;1.2;1.2;;;;;;;14.7;100.0;101150;;;;
2022/06/06 00:05:00;;;;;;;1.2;1.2;;;;;;;14.7;100.0;101150;;;;
2022/06/06 00:06:00;;;;;;;1.2;1.2;;;;;;;14.7;100.0;101140;;;;
2022/06/06 00:07:00;;;;;;;1.2;1.2;;;;;;;14.7;100.0;101140;;;;
2022/06/06 00:08:00;;;;;;;1.2;1.2;;;;;;;14.6;100.0;101140;;;;
2022/06/06 00:09:00;;;;;;;1.2;1.2;;;;;;;14.6;100.0;101140;;;;
2022/06/06 00:10:00;;;;;;;1.2;1.2;;;;;;;14.8;100.0;101140;;;;
2022/06/06 00:11:01;;;;;;;1.2;1.2;;;;;;;14.8;100.0;101140;;;;
2022/06/06 00:12:01;;;;;;;1.2;1.2;;;;;;;14.9;100.0;101130;;;;
2022/06/06 00:13:00;;;;;;;1.2;1.2;;;;;;;14.9;100.0;101130;;;;
2022/06/06 00:14:00;;;;;;;1.2;1.2;;;;;;;14.8;100.0;101130;;;;
2022/06/06 00:15:00;;;;;;;1.2;1.2;;;;;;;14.8;100.0;101130;;;;
2022/06/06 00:16:00;;;;;;;1.2;1.2;;;;;;;14.9;100.0;101130;;;;
2022/06/06 00:17:00;;;;;;;1.2;1.2;;;;;;;14.9;100.0;101130;;;;
2022/06/06 00:18:00;;;;;;;1.2;1.2;;;;;;;14.9;100.0;101130;;;;
2022/06/06 00:19:00;;;;;;;1.2;1.2;;;;;;;14.9;100.0;101130;;;;
2022/06/06 00:20:00;;;;;;;1.2;1.2;;;;;;;14.8;100.0;101140;;;;
2022/06/06 00:21:00;;;;;;;1.1;1.1;;;;;;;14.8;100.0;101140;;;;
2022/06/06 00:22:00;;;;;;;1.1;1.1;;;;;;;14.8;100.0;101130;;;;
2022/06/06 00:23:00;;;;;;;1.1;1.1;;;;;;;14.8;100.0;101130;;;;
2022/06/06 00:24:00;;;;;;;1.1;1.1;;;;;;;14.8;100.0;101130;;;;
2022/06/06 00:25:00;;;;;;;1.1;1.1;;;;;;;14.8;100.0;101130;;;;
2022/06/06 00:26:00;;;;;;;1.1;1.1;;;;;;;14.7;100.0;101130;;;;
2022/06/06 00:27:00;;;;;;;1.1;1.1;;;;;;;14.7;100.0;101130;;;;
2022/06/06 00:28:00;;;;;;;1.1;1.1;;;;;;;14.8;100.0;101130;;;;
2022/06/06 00:29:00;;;;;;;1.1;1.1;;;;;;;14.8;100.0;101130;;;;
2022/06/06 00:30:00;;;;;;;1.1;1.1;;;;;;;14.8;100.0;101130;;;;
2022/06/06 00:34:48;;;;;;;1.1;1.1;;;;;;;14.8;100.0;101130;;;;
2022/06/06 00:35:03;;;;;;;1.1;1.1;;;;;;;14.9;100.0;101120;;;;
2022/06/06 00:36:00;;;;;;;1.1;1.1;;;;;;;14.9;100.0;101120;;;;
2022/06/06 00:37:00;;;;;;;1.1;1.1;;;;;;;14.9;100.0;101120;;;;
2022/06/06 00:38:00;;;;;;;1.1;1.1;;;;;;;14.9;100.0;101120;;;;
2022/06/06 00:39:00;;;;;;;1.1;1.1;;;;;;;14.9;100.0;101120;;;;
2022/06/06 00:40:01;;;;;;;1.1;1.1;;;;;;;14.9;100.0;101120;;;;
2022/06/06 00:41:00;;;;;;;1.3;1.3;;;;;;;14.9;100.0;101120;;;;
2022/06/06 00:42:00;;;;;;;1.3;1.3;;;;;;;14.9;100.0;101120;;;;
2022/06/06 00:43:03;;;;;;;1.3;1.3;;;;;;;14.9;100.0;101120;;;;
2022/06/06 00:44:10;;;;;;;1.3;1.3;;;;;;;14.9;100.0;101120;;;;
2022/06/06 00:45:10;;;;;;;1.3;1.3;;;;;;;14.9;100.0;101120;;;;
2022/06/06 00:46:01;;;;;;;1.3;1.3;;;;;;;14.8;100.0;101110;;;;
2022/06/06 00:47:10;;;;;;;1.3;1.3;;;;;;;14.8;100.0;101110;;;;
2022/06/06 00:48:10;;;;;;;1.3;1.3;;;;;;;14.8;100.0;101120;;;;
2022/06/06 00:49:01;;;;;;;1.3;1.3;;;;;;;14.8;100.0;101120;;;;
2022/06/06 00:50:02;;;;;;;1.3;1.3;;;;;;;14.9;100.0;101120;;;;
2022/06/06 00:51:00;;;;;;;1.3;1.3;;;;;;;14.9;100.0;101120;;;;
2022/06/06 00:52:01;;;;;;;1.3;1.3;;;;;;;14.9;100.0;101120;;;;
2022/06/06 00:53:00;;;;;;;1.3;1.3;;;;;;;14.9;100.0;101120;;;;
2022/06/06 00:54:00;;;;;;;1.3;1.3;;;;;;;15.0;100.0;101120;;;;
2022/06/06 00:55:01;;;;;;;1.3;1.3;;;;;;;15.0;100.0;101120;;;;
2022/06/06 00:56:04;;;;;;;1.3;1.3;;;;;;;14.9;100.0;101120;;;;
2022/06/06 00:57:02;;;;;;;1.3;1.3;;;;;;;14.9;100.0;101120;;;;
2022/06/06 00:58:05;;;;;;;1.3;1.3;;;;;;;14.9;100.0;101120;;;;
2022/06/06 00:59:03;;;;;;;1.3;1.3;;;;;;;14.9;100.0;101120;;;;
2022/06/06 01:00:04;;;;;;;1.3;1.3;;;;;;;15.0;100.0;101120;;;;
2022/06/06 01:01:01;;;;;;;0.9;0.9;;;;;;;15.0;100.0;101120;;;;
2022/06/06 01:02:00;;;;;;;0.9;0.9;;;;;;;14.9;100.0;101120;;;;
2022/06/06 01:03:01;;;;;;;0.9;0.9;;;;;;;14.9;100.0;101120;;;;
2022/06/06 01:04:01;;;;;;;0.9;0.9;;;;;;;15.0;100.0;101110;;;;
2022/06/06 01:05:01;;;;;;;0.9;0.9;;;;;;;15.0;100.0;101110;;;;
2022/06/06 01:06:01;;;;;;;0.9;0.9;;;;;;;15.0;100.0;101120;;;;
2022/06/06 01:07:00;;;;;;;0.9;0.9;;;;;;;15.0;100.0;101120;;;;
2022/06/06 01:08:00;;;;;;;0.9;0.9;;;;;;;14.9;100.0;101120;;;;
2022/06/06 01:09:00;;;;;;;0.9;0.9;;;;;;;14.9;100.0;101120;;;;
2022/06/06 01:10:00;;;;;;;0.9;0.9;;;;;;;14.9;100.0;101120;;;;
2022/06/06 01:11:00;;;;;;;0.9;0.9;;;;;;;14.9;100.0;101120;;;;
2022/06/06 01:12:03;;;;;;;0.9;0.9;;;;;;;14.9;100.0;101120;;;;
2022/06/06 01:13:01;;;;;;;0.9;0.9;;;;;;;14.9;100.0;101120;;;;
2022/06/06 01:14:02;;;;;;;0.9;0.9;;;;;;;15.0;100.0;101110;;;;
2022/06/06 01:15:02;;;;;;;0.9;0.9;;;;;;;15.0;100.0;101110;;;;
2022/06/06 01:16:10;;;;;;;0.9;0.9;;;;;;;15.0;100.0;101120;;;;
2022/06/06 01:17:03;;;;;;;0.9;0.9;;;;;;;15.0;100.0;101120;;;;
2022/06/06 01:18:05;;;;;;;0.9;0.9;;;;;;;15.0;100.0;101110;;;;
2022/06/06 01:19:10;;;;;;;0.9;0.9;;;;;;;15.0;100.0;101110;;;;
2022/06/06 01:20:10;;;;;;;0.9;0.9;;;;;;;15.0;100.0;101110;;;;
2022/06/06 01:21:10;;;;;;;0.5;0.5;;;;;;;15.0;100.0;101110;;;;
2022/06/06 01:22:10;;;;;;;0.5;0.5;;;;;;;14.9;100.0;101110;;;;
2022/06/06 01:23:10;;;;;;;0.5;0.5;;;;;;;14.9;100.0;101110;;;;
2022/06/06 01:24:07;;;;;;;0.5;0.5;;;;;;;14.9;100.0;101120;;;;
2022/06/06 01:25:10;;;;;;;0.5;0.5;;;;;;;14.9;100.0;101120;;;;
2022/06/06 01:26:09;;;;;;;0.5;0.5;;;;;;;14.9;100.0;101120;;;;
2022/06/06 01:27:10;;;;;;;0.5;0.5;;;;;;;14.9;100.0;101120;;;;
2022/06/06 01:28:04;;;;;;;0.5;0.5;;;;;;;14.9;100.0;101110;;;;
2022/06/06 01:29:06;;;;;;;0.5;0.5;;;;;;;14.9;100.0;101110;;;;
2022/06/06 01:30:05;;;;;;;0.5;0.5;;;;;;;15.0;100.0;101120;;;;
2022/06/06 01:31:03;;;;;;;0.5;0.5;;;;;;;15.0;100.0;101120;;;;
2022/06/06 01:32:02;;;;;;;0.5;0.5;;;;;;;15.0;100.0;101120;;;;
2022/06/06 01:33:02;;;;;;;0.5;0.5;;;;;;;15.0;100.0;101120;;;;
2022/06/06 01:34:02;;;;;;;0.5;0.5;;;;;;;15.0;100.0;101120;;;;
2022/06/06 01:35:00;;;;;;;0.5;0.5;;;;;;;15.0;100.0;101120;;;;
2022/06/06 01:36:01;;;;;;;0.5;0.5;;;;;;;15.0;100.0;101120;;;;
2022/06/06 01:37:00;;;;;;;0.5;0.5;;;;;;;15.0;100.0;101120;;;;
2022/06/06 01:38:00;;;;;;;0.5;0.5;;;;;;;15.0;100.0;101120;;;;
2022/06/06 01:39:04;;;;;;;0.5;0.5;;;;;;;15.0;100.0;101120;;;;
2022/06/06 01:40:01;;;;;;;0.5;0.5;;;;;;;15.0;100.0;101120;;;;
2022/06/06 01:41:06;;;;;;;0.9;0.9;;;;;;;15.0;100.0;101120;;;;
2022/06/06 01:42:10;;;;;;;0.9;0.9;;;;;;;15.1;100.0;101120;;;;
2022/06/06 01:43:05;;;;;;;0.9;0.9;;;;;;;15.1;100.0;101120;;;;
2022/06/06 01:44:05;;;;;;;0.9;0.9;;;;;;;15.0;100.0;101130;;;;
2022/06/06 01:45:05;;;;;;;0.9;0.9;;;;;;;15.0;100.0;101130;;;;
2022/06/06 01:46:02;;;;;;;0.9;0.9;;;;;;;15.1;100.0;101130;;;;
2022/06/06 01:47:03;;;;;;;0.9;0.9;;;;;;;15.1;100.0;101130;;;;
2022/06/06 01:48:03;;;;;;;0.9;0.9;;;;;;;15.1;100.0;101120;;;;
2022/06/06 01:49:00;;;;;;;0.9;0.9;;;;;;;15.1;100.0;101120;;;;
2022/06/06 01:50:01;;;;;;;0.9;0.9;;;;;;;15.1;100.0;101120;;;;
2022/06/06 01:51:07;;;;;;;0.9;0.9;;;;;;;15.1;100.0;101120;;;;
2022/06/06 01:52:03;;;;;;;0.9;0.9;;;;;;;15.1;100.0;101120;;;;
2022/06/06 01:53:01;;;;;;;0.9;0.9;;;;;;;15.1;100.0;101120;;;;
2022/06/06 01:54:00;;;;;;;0.9;0.9;;;;;;;15.1;100.0;101120;;;;
2022/06/06 01:55:00;;;;;;;0.9;0.9;;;;;;;15.1;100.0;101120;;;;
2022/06/06 01:56:00;;;;;;;0.9;0.9;;;;;;;15.0;100.0;101120;;;;
2022/06/06 01:57:02;;;;;;;0.9;0.9;;;;;;;15.0;100.0;101120;;;;
2022/06/06 01:58:01;;;;;;;0.9;0.9;;;;;;;15.1;100.0;101110;;;;
2022/06/06 01:59:00;;;;;;;0.9;0.9;;;;;;;15.1;100.0;101110;;;;
2022/06/06 02:00:00;;;;;;;0.9;0.9;;;;;;;15.1;100.0;101110;;;;
2022/06/06 02:01:02;;;;;;;1.3;1.2;;;;;;;15.1;100.0;101110;;;;
2022/06/06 02:02:00;;;;;;;1.3;1.2;;;;;;;15.2;100.0;101110;;;;
2022/06/06 02:03:00;;;;;;;1.3;1.2;;;;;;;15.2;100.0;101110;;;;
2022/06/06 02:04:00;;;;;;;1.3;1.2;;;;;;;15.2;100.0;101110;;;;
2022/06/06 02:05:00;;;;;;;1.3;1.2;;;;;;;15.2;100.0;101110;;;;
2022/06/06 02:06:02;;;;;;;1.3;1.2;;;;;;;15.1;100.0;101110;;;;
2022/06/06 02:07:00;;;;;;;1.3;1.2;;;;;;;15.1;100.0;101110;;;;
2022/06/06 02:08:00;;;;;;;1.3;1.2;;;;;;;15.2;100.0;101110;;;;
2022/06/06 02:09:00;;;;;;;1.3;1.2;;;;;;;15.2;100.0;101110;;;;
2022/06/06 02:10:00;;;;;;;1.3;1.2;;;;;;;15.1;100.0;101100;;;;
2022/06/06 02:11:00;;;;;;;1.3;1.2;;;;;;;15.1;100.0;101100;;;;
2022/06/06 02:12:00;;;;;;;1.3;1.2;;;;;;;15.2;100.0;101100;;;;
2022/06/06 02:13:00;;;;;;;1.3;1.2;;;;;;;15.2;100.0;101100;;;;
2022/06/06 02:14:00;;;;;;;1.3;1.2;;;;;;;15.2;100.0;101100;;;;
2022/06/06 02:15:00;;;;;;;1.3;1.2;;;;;;;15.2;100.0;101100;;;;
2022/06/06 02:16:00;;;;;;;1.3;1.2;;;;;;;15.2;100.0;101100;;;;
2022/06/06 02:17:00;;;;;;;1.3;1.2;;;;;;;15.2;100.0;101100;;;;
2022/06/06 02:18:00;;;;;;;1.3;1.2;;;;;;;15.1;100.0;101090;;;;
2022/06/06 02:19:00;;;;;;;1.3;1.2;;;;;;;15.1;100.0;101090;;;;
2022/06/06 02:20:04;;;;;;;1.3;1.2;;;;;;;15.3;100.0;101090;;;;
2022/06/06 02:21:01;;;;;;;1.0;1.0;;;;;;;15.3;100.0;101090;;;;
2022/06/06 02:22:00;;;;;;;1.0;1.0;;;;;;;15.2;100.0;101100;;;;
2022/06/06 02:23:00;;;;;;;1.0;1.0;;;;;;;15.2;100.0;101100;;;;
2022/06/06 02:24:00;;;;;;;1.0;1.0;;;;;;;15.2;100.0;101090;;;;
2022/06/06 02:25:00;;;;;;;1.0;1.0;;;;;;;15.2;100.0;101090;;;;
2022/06/06 02:26:00;;;;;;;1.0;1.0;;;;;;;15.2;100.0;101090;;;;
2022/06/06 02:27:00;;;;;;;1.0;1.0;;;;;;;15.2;100.0;101090;;;;
2022/06/06 02:28:01;;;;;;;1.0;1.0;;;;;;;15.2;100.0;101090;;;;
2022/06/06 02:29:00;;;;;;;1.0;1.0;;;;;;;15.2;100.0;101090;;;;
2022/06/06 02:30:00;;;;;;;1.0;1.0;;;;;;;15.2;100.0;101080;;;;
2022/06/06 02:31:00;;;;;;;1.0;1.0;;;;;;;15.2;100.0;101080;;;;
2022/06/06 02:32:00;;;;;;;1.0;1.0;;;;;;;15.2;100.0;101080;;;;
2022/06/06 02:33:00;;;;;;;1.0;1.0;;;;;;;15.2;100.0;101080;;;;
2022/06/06 02:34:00;;;;;;;1.0;1.0;;;;;;;15.3;100.0;101080;;;;
2022/06/06 02:35:00;;;;;;;1.0;1.0;;;;;;;15.3;100.0;101080;;;;
2022/06/06 02:36:00;;;;;;;1.0;1.0;;;;;;;15.3;100.0;101080;;;;
2022/06/06 02:37:00;;;;;;;1.0;1.0;;;;;;;15.3;100.0;101080;;;;
2022/06/06 02:38:00;;;;;;;1.0;1.0;;;;;;;15.3;100.0;101080;;;;
2022/06/06 02:39:00;;;;;;;1.0;1.0;;;;;;;15.3;100.0;101080;;;;
2022/06/06 02:40:00;;;;;;;1.0;1.0;;;;;;;15.2;100.0;101080;;;;
2022/06/06 02:41:07;;;;;;;1.0;1.0;;;;;;;15.2;100.0;101080;;;;
2022/06/06 02:42:00;;;;;;;1.0;1.0;;;;;;;15.4;100.0;101080;;;;
2022/06/06 02:43:00;;;;;;;1.0;1.0;;;;;;;15.4;100.0;101080;;;;
2022/06/06 02:44:00;;;;;;;1.0;1.0;;;;;;;15.4;100.0;101070;;;;
2022/06/06 02:45:00;;;;;;;1.0;1.0;;;;;;;15.4;100.0;101070;;;;
2022/06/06 02:46:01;;;;;;;1.0;1.0;;;;;;;15.2;100.0;101060;;;;
2022/06/06 02:47:00;;;;;;;1.0;1.0;;;;;;;15.2;100.0;101060;;;;
2022/06/06 02:48:00;;;;;;;1.0;1.0;;;;;;;15.3;100.0;101070;;;;
2022/06/06 02:49:00;;;;;;;1.0;1.0;;;;;;;15.3;100.0;101070;;;;
2022/06/06 02:50:00;;;;;;;1.0;1.0;;;;;;;15.2;100.0;101070;;;;
2022/06/06 02:51:00;;;;;;;1.0;1.0;;;;;;;15.2;100.0;101070;;;;
2022/06/06 02:52:00;;;;;;;1.0;1.0;;;;;;;15.1;100.0;101070;;;;
2022/06/06 02:53:00;;;;;;;1.0;1.0;;;;;;;15.1;100.0;101070;;;;
2022/06/06 02:54:01;;;;;;;1.0;1.0;;;;;;;15.1;100.0;101070;;;;
2022/06/06 02:55:01;;;;;;;1.0;1.0;;;;;;;15.1;100.0;101070;;;;
2022/06/06 02:56:00;;;;;;;1.0;1.0;;;;;;;15.2;100.0;101070;;;;
2022/06/06 02:57:03;;;;;;;1.0;1.0;;;;;;;15.2;100.0;101070;;;;
2022/06/06 02:58:00;;;;;;;1.0;1.0;;;;;;;15.2;100.0;101070;;;;
2022/06/06 02:59:02;;;;;;;1.0;1.0;;;;;;;15.2;100.0;101070;;;;
2022/06/06 03:00:00;;;;;;;2.2;2.1;;;;;;;15.1;100.0;101070;;;;
2022/06/06 03:01:01;;;;;;;2.2;2.1;;;;;;;15.1;100.0;101070;;;;
2022/06/06 03:02:02;;;;;;;2.2;2.1;;;;;;;15.2;100.0;101070;;;;
2022/06/06 03:03:00;;;;;;;2.2;2.1;;;;;;;15.2;100.0;101070;;;;
2022/06/06 03:04:00;;;;;;;2.2;2.1;;;;;;;15.1;100.0;101070;;;;
2022/06/06 03:05:00;;;;;;;2.2;2.1;;;;;;;15.1;100.0;101070;;;;
2022/06/06 03:06:09;;;;;;;2.2;2.1;;;;;;;15.0;100.0;101070;;;;
2022/06/06 03:07:03;;;;;;;2.2;2.1;;;;;;;15.0;100.0;101070;;;;
2022/06/06 03:08:05;;;;;;;2.2;2.1;;;;;;;15.0;100.0;101070;;;;
2022/06/06 03:09:06;;;;;;;2.2;2.1;;;;;;;15.0;100.0;101070;;;;
2022/06/06 03:10:00;;;;;;;2.2;2.1;;;;;;;15.2;100.0;101070;;;;
2022/06/06 03:11:00;;;;;;;2.2;2.1;;;;;;;15.2;100.0;101070;;;;
2022/06/06 03:12:06;;;;;;;2.2;2.1;;;;;;;15.0;100.0;101070;;;;
2022/06/06 03:13:12;;;;;;;2.2;2.1;;;;;;;15.0;100.0;101070;;;;
2022/06/06 03:14:08;;;;;;;2.2;2.1;;;;;;;15.1;100.0;101070;;;;
2022/06/06 03:15:10;;;;;;;2.2;2.1;;;;;;;15.1;100.0;101070;;;;
2022/06/06 03:21:00;;;;;;;1.6;1.5;;;;;;;14.9;100.0;101080;;;;
2022/06/06 03:22:10;;;;;;;1.6;1.5;;;;;;;15.0;100.0;101080;;;;
2022/06/06 03:23:10;;;;;;;1.6;1.5;;;;;;;15.0;100.0;101080;;;;
2022/06/06 03:24:08;;;;;;;1.6;1.5;;;;;;;15.0;100.0;101080;;;;
2022/06/06 03:25:06;;;;;;;1.6;1.5;;;;;;;15.0;100.0;101080;;;;
2022/06/06 03:26:10;;;;;;;1.6;1.5;;;;;;;15.0;100.0;101080;;;;
2022/06/06 03:27:11;;;;;;;1.6;1.5;;;;;;;15.0;100.0;101080;;;;
2022/06/06 03:28:10;;;;;;;1.6;1.5;;;;;;;15.0;100.0;101080;;;;
2022/06/06 03:29:00;;;;;;;1.6;1.5;;;;;;;15.0;100.0;101080;;;;
2022/06/06 03:30:10;;;;;;;1.6;1.5;;;;;;;14.9;100.0;101080;;;;
2022/06/06 03:31:10;;;;;;;1.6;1.5;;;;;;;14.9;100.0;101080;;;;
2022/06/06 03:32:05;;;;;;;1.6;1.5;;;;;;;14.9;100.0;101080;;;;
2022/06/06 03:33:10;;;;;;;1.6;1.5;;;;;;;14.9;100.0;101080;;;;
2022/06/06 03:34:10;;;;;;;1.6;1.5;;;;;;;14.9;100.0;101080;;;;
2022/06/06 03:35:01;;;;;;;1.6;1.5;;;;;;;14.9;100.0;101080;;;;
2022/06/06 03:36:10;;;;;;;1.6;1.5;;;;;;;14.9;100.0;101080;;;;
2022/06/06 03:37:03;;;;;;;1.6;1.5;;;;;;;14.9;100.0;101080;;;;
2022/06/06 03:38:03;;;;;;;1.6;1.5;;;;;;;14.8;100.0;101080;;;;
2022/06/06 03:39:16;;;;;;;1.6;1.5;;;;;;;14.8;100.0;101080;;;;
2022/06/06 03:40:10;;;;;;;3.4;2.4;;;;;;;15.0;100.0;101080;;;;
2022/06/06 03:41:08;;;;;;;3.4;2.4;;;;;;;15.0;100.0;101080;;;;
2022/06/06 03:42:00;;;;;;;3.4;2.4;;;;;;;14.9;100.0;101080;;;;
2022/06/06 03:43:07;;;;;;;3.4;2.4;;;;;;;14.9;100.0;101080;;;;
2022/06/06 03:44:10;;;;;;;3.4;2.4;;;;;;;14.9;100.0;101090;;;;
2022/06/06 03:45:01;;;;;;;3.4;2.4;;;;;;;14.9;100.0;101090;;;;
2022/06/06 03:46:10;;;;;;;3.4;2.4;;;;;;;14.9;100.0;101090;;;;
2022/06/06 03:47:08;;;;;;;3.4;2.4;;;;;;;14.9;100.0;101090;;;;
2022/06/06 03:48:08;;;;;;;3.4;2.4;;;;;;;14.9;100.0;101090;;;;
2022/06/06 03:49:07;;;;;;;3.4;2.4;;;;;;;14.9;100.0;101090;;;;
2022/06/06 03:50:10;;;;;;;3.4;2.4;;;;;;;14.9;100.0;101090;;;;
2022/06/06 03:51:00;;;;;;;3.4;2.4;;;;;;;14.9;100.0;101090;;;;
2022/06/06 03:52:00;;;;;;;3.4;2.4;;;;;;;14.8;100.0;101090;;;;
2022/06/06 03:53:05;;;;;;;3.4;2.4;;;;;;;14.8;100.0;101090;;;;
2022/06/06 03:54:07;;;;;;;3.4;2.4;;;;;;;14.8;100.0;101090;;;;
2022/06/06 03:55:10;;;;;;;3.4;2.4;;;;;;;14.8;100.0;101090;;;;
2022/06/06 03:56:03;;;;;;;3.4;2.4;;;;;;;14.7;100.0;101090;;;;
2022/06/06 03:57:03;;;;;;;3.4;2.4;;;;;;;14.7;100.0;101090;;;;
2022/06/06 03:58:03;;;;;;;3.4;2.4;;;;;;;14.8;100.0;101090;;;;
2022/06/06 03:59:00;;;;;;;3.4;2.4;;;;;;;14.8;100.0;101090;;;;
2022/06/06 04:00:01;;;;;;;0.9;0.9;;;;;;;14.8;100.0;101090;;;;
2022/06/06 04:01:02;;;;;;;0.9;0.9;;;;;;;14.8;100.0;101090;;;;
2022/06/06 04:02:02;;;;;;;0.9;0.9;;;;;;;14.8;100.0;101090;;;;
2022/06/06 04:03:01;;;;;;;0.9;0.9;;;;;;;14.8;100.0;101090;;;;
2022/06/06 04:04:01;;;;;;;0.9;0.9;;;;;;;14.8;100.0;101100;;;;
2022/06/06 04:05:01;;;;;;;0.9;0.9;;;;;;;14.8;100.0;101100;;;;
2022/06/06 04:06:02;;;;;;;0.9;0.9;;;;;;;14.8;100.0;101090;;;;
2022/06/06 04:07:01;;;;;;;0.9;0.9;;;;;;;14.8;100.0;101090;;;;
2022/06/06 04:08:00;;;;;;;0.9;0.9;;;;;;;14.8;100.0;101090;;;;
2022/06/06 04:09:00;;;;;;;0.9;0.9;;;;;;;14.8;100.0;101090;;;;
2022/06/06 04:10:01;;;;;;;0.9;0.9;;;;;;;14.8;100.0;101090;;;;
2022/06/06 04:11:08;;;;;;;0.9;0.9;;;;;;;14.8;100.0;101090;;;;
2022/06/06 04:12:01;;;;;;;0.9;0.9;;;;;;;14.6;100.0;101100;;;;
2022/06/06 04:13:01;;;;;;;0.9;0.9;;;;;;;14.6;100.0;101100;;;;
2022/06/06 04:14:10;;;;;;;0.9;0.9;;;;;;;14.6;100.0;101100;;;;
2022/06/06 04:15:07;;;;;;;0.9;0.9;;;;;;;14.6;100.0;101100;;;;
2022/06/06 04:16:01;;;;;;;0.9;0.9;;;;;;;14.7;100.0;101110;;;;
2022/06/06 04:17:09;;;;;;;0.9;0.9;;;;;;;14.7;100.0;101110;;;;
2022/06/06 04:18:09;;;;;;;0.9;0.9;;;;;;;14.7;100.0;101100;;;;
2022/06/06 04:19:03;;;;;;;0.9;0.9;;;;;;;14.7;100.0;101100;;;;
2022/06/06 04:20:10;;;;;;;0.8;0.8;;;;;;;14.8;100.0;101100;;;;
2022/06/06 04:21:03;;;;;;;0.8;0.8;;;;;;;14.8;100.0;101100;;;;
2022/06/06 04:22:00;;;;;;;0.8;0.8;;;;;;;14.6;100.0;101100;;;;
2022/06/06 04:23:10;;;;;;;0.8;0.8;;;;;;;14.6;100.0;101100;;;;
2022/06/06 04:24:01;;;;;;;0.8;0.8;;;;;;;14.6;100.0;101100;;;;
2022/06/06 04:25:04;;;;;;;0.8;0.8;;;;;;;14.6;100.0;101100;;;;
2022/06/06 04:26:07;;;;;;;0.8;0.8;;;;;;;14.6;100.0;101100;;;;
2022/06/06 04:27:10;;;;;;;0.8;0.8;;;;;;;14.6;100.0;101100;;;;
2022/06/06 04:28:10;;;;;;;0.8;0.8;;;;;;;14.6;100.0;101100;;;;
2022/06/06 04:29:10;;;;;;;0.8;0.8;;;;;;;14.6;100.0;101100;;;;
2022/06/06 04:30:05;;;;;;;0.8;0.8;;;;;;;14.6;100.0;101110;;;;
2022/06/06 04:31:03;;;;;;;0.8;0.8;;;;;;;14.6;100.0;101110;;;;
2022/06/06 04:32:07;;;;;;;0.8;0.8;;;;;;;14.6;100.0;101110;;;;
2022/06/06 04:33:14;;;;;;;0.8;0.8;;;;;;;14.6;100.0;101110;;;;
2022/06/06 04:34:10;;;;;;;0.8;0.8;;;;;;;14.5;100.0;101110;;;;
2022/06/06 04:35:06;;;;;;;0.8;0.8;;;;;;;14.5;100.0;101110;;;;
2022/06/06 04:36:10;;;;;;;0.8;0.8;;;;;;;14.5;100.0;101110;;;;
2022/06/06 04:37:10;;;;;;;0.8;0.8;;;;;;;14.5;100.0;101110;;;;
2022/06/06 04:38:08;;;;;;;0.8;0.8;;;;;;;14.5;100.0;101120;;;;
2022/06/06 04:39:00;;;;;;;0.8;0.8;;;;;;;14.5;100.0;101120;;;;
2022/06/06 04:40:08;;;;;;;1.5;1.5;;;;;;;14.4;100.0;101120;;;;
2022/06/06 04:41:06;;;;;;;1.5;1.5;;;;;;;14.4;100.0;101120;;;;
2022/06/06 04:42:07;;;;;;;1.5;1.5;;;;;;;14.4;100.0;101120;;;;
2022/06/06 04:43:06;;;;;;;1.5;1.5;;;;;;;14.4;100.0;101120;;;;
2022/06/06 04:44:03;;;;;;;1.5;1.5;;;;;;;14.4;100.0;101120;;;;
2022/06/06 04:45:06;;;;;;;1.5;1.5;;;;;;;14.4;100.0;101120;;;;
2022/06/06 04:46:06;;;;;;;1.5;1.5;;;;;;;14.3;100.0;101120;;;;
2022/06/06 04:47:05;;;;;;;1.5;1.5;;;;;;;14.3;100.0;101120;;;;
2022/06/06 04:48:01;;;;;;;1.5;1.5;;;;;;;14.3;100.0;101120;;;;
2022/06/06 04:49:00;;;;;;;1.5;1.5;;;;;;;14.3;100.0;101120;;;;
2022/06/06 04:50:02;;;;;;;1.5;1.5;;;;;;;14.3;100.0;101120;;;;
2022/06/06 04:51:01;;;;;;;1.5;1.5;;;;;;;14.3;100.0;101120;;;;
2022/06/06 04:52:01;;;;;;;1.5;1.5;;;;;;;14.2;100.0;101130;;;;
2022/06/06 04:53:03;;;;;;;1.5;1.5;;;;;;;14.2;100.0;101130;;;;
2022/06/06 04:54:01;;;;;;;1.5;1.5;;;;;;;14.2;100.0;101130;;;;
2022/06/06 04:55:01;;;;;;;1.5;1.5;;;;;;;14.2;100.0;101130;;;;
2022/06/06 04:56:00;;;;;;;1.5;1.5;;;;;;;14.3;100.0;101130;;;;
2022/06/06 04:57:02;;;;;;;1.5;1.5;;;;;;;14.3;100.0;101130;;;;
2022/06/06 04:58:01;;;;;;;1.5;1.5;;;;;;;14.4;100.0;101130;;;;
2022/06/06 04:59:01;;;;;;;1.5;1.5;;;;;;;14.4;100.0;101130;;;;
2022/06/06 05:00:04;;;;;;;1.1;1.1;;;;;;;14.3;100.0;101130;;;;
2022/06/06 05:01:01;;;;;;;1.1;1.1;;;;;;;14.3;100.0;101130;;;;
2022/06/06 05:02:02;;;;;;;1.1;1.1;;;;;;;14.4;100.0;101130;;;;
2022/06/06 05:03:00;;;;;;;1.1;1.1;;;;;;;14.4;100.0;101130;;;;
2022/06/06 05:04:00;;;;;;;1.1;1.1;;;;;;;14.3;100.0;101130;;;;
2022/06/06 05:05:00;;;;;;;1.1;1.1;;;;;;;14.3;100.0;101130;;;;
2022/06/06 05:06:07;;;;;;;1.1;1.1;;;;;;;14.3;100.0;101120;;;;
2022/06/06 05:07:00;;;;;;;1.1;1.1;;;;;;;14.3;100.0;101120;;;;
2022/06/06 05:08:01;;;;;;;1.1;1.1;;;;;;;14.2;100.0;101120;;;;
2022/06/06 05:09:10;;;;;;;1.1;1.1;;;;;;;14.2;100.0;101120;;;;
2022/06/06 05:10:10;;;;;;;1.1;1.1;;;;;;;14.3;100.0;101130;;;;
2022/06/06 05:11:01;;;;;;;1.1;1.1;;;;;;;14.3;100.0;101130;;;;
2022/06/06 05:12:10;;;;;;;1.1;1.1;;;;;;;14.2;100.0;101130;;;;
2022/06/06 05:13:10;;;;;;;1.1;1.1;;;;;;;14.2;100.0;101130;;;;
2022/06/06 05:14:01;;;;;;;1.1;1.1;;;;;;;14.3;100.0;101130;;;;
2022/06/06 05:15:05;;;;;;;1.1;1.1;;;;;;;14.3;100.0;101130;;;;
2022/06/06 05:16:03;;;;;;;1.1;1.1;;;;;;;14.3;100.0;101130;;;;
2022/06/06 05:17:10;;;;;;;1.1;1.1;;;;;;;14.3;100.0;101130;;;;
2022/06/06 05:18:03;;;;;;;1.1;1.1;;;;;;;14.4;100.0;101130;;;;
2022/06/06 05:19:09;;;;;;;1.1;1.1;;;;;;;14.4;100.0;101130;;;;
2022/06/06 05:20:15;;;;;;;1.0;1.0;;;;;;;14.4;100.0;101130;;;;
2022/06/06 05:21:10;;;;;;;1.0;1.0;;;;;;;14.4;100.0;101130;;;;
2022/06/06 05:22:03;;;;;;;1.0;1.0;;;;;;;14.3;100.0;101120;;;;
2022/06/06 05:23:03;;;;;;;1.0;1.0;;;;;;;14.3;100.0;101120;;;;
2022/06/06 05:24:03;;;;;;;1.0;1.0;;;;;;;14.1;100.0;101120;;;;
2022/06/06 05:25:03;;;;;;;1.0;1.0;;;;;;;14.1;100.0;101120;;;;
2022/06/06 05:26:00;;;;;;;1.0;1.0;;;;;;;14.2;100.0;101130;;;;
2022/06/06 05:27:10;;;;;;;1.0;1.0;;;;;;;14.2;100.0;101130;;;;
2022/06/06 05:28:00;;;;;;;1.0;1.0;;;;;;;14.3;100.0;101130;;;;
2022/06/06 05:29:10;;;;;;;1.0;1.0;;;;;;;14.3;100.0;101130;;;;
2022/06/06 05:30:01;;;;;;;1.0;1.0;;;;;;;14.4;100.0;101130;;;;
2022/06/06 05:31:07;;;;;;;1.0;1.0;;;;;;;14.4;100.0;101130;;;;
2022/06/06 05:32:10;;;;;;;1.0;1.0;;;;;;;14.4;100.0;101130;;;;
2022/06/06 05:33:00;;;;;;;1.0;1.0;;;;;;;14.4;100.0;101130;;;;
2022/06/06 05:34:05;;;;;;;1.0;1.0;;;;;;;14.2;100.0;101130;;;;
2022/06/06 05:35:07;;;;;;;1.0;1.0;;;;;;;14.2;100.0;101130;;;;
2022/06/06 05:36:10;;;;;;;1.0;1.0;;;;;;;14.4;100.0;101130;;;;
2022/06/06 05:37:14;;;;;;;1.0;1.0;;;;;;;14.4;100.0;101130;;;;
2022/06/06 05:38:00;;;;;;;1.0;1.0;;;;;;;14.3;100.0;101130;;;;
2022/06/06 05:39:00;;;;;;;1.0;1.0;;;;;;;14.3;100.0;101130;;;;
2022/06/06 05:40:00;;;;;;;1.8;1.8;;;;;;;14.3;100.0;101130;;;;
2022/06/06 05:41:07;;;;;;;1.8;1.8;;;;;;;14.3;100.0;101130;;;;
2022/06/06 05:42:10;;;;;;;1.8;1.8;;;;;;;14.5;100.0;101140;;;;
2022/06/06 05:43:10;;;;;;;1.8;1.8;;;;;;;14.5;100.0;101140;;;;
2022/06/06 05:44:06;;;;;;;1.8;1.8;;;;;;;14.5;100.0;101130;;;;
2022/06/06 05:45:10;;;;;;;1.8;1.8;;;;;;;14.5;100.0;101130;;;;
2022/06/06 05:46:00;;;;;;;1.8;1.8;;;;;;;14.6;100.0;101140;;;;
2022/06/06 05:47:07;;;;;;;1.8;1.8;;;;;;;14.6;100.0;101140;;;;
2022/06/06 05:48:10;;;;;;;1.8;1.8;;;;;;;14.4;100.0;101150;;;;
2022/06/06 05:49:10;;;;;;;1.8;1.8;;;;;;;14.4;100.0;101150;;;;
2022/06/06 05:50:00;;;;;;;1.8;1.8;;;;;;;14.5;100.0;101140;;;;
2022/06/06 05:51:00;;;;;;;1.8;1.8;;;;;;;14.5;100.0;101140;;;;
2022/06/06 05:52:00;;;;;;;1.8;1.8;;;;;;;14.4;100.0;101150;;;;
2022/06/06 05:53:10;;;;;;;1.8;1.8;;;;;;;14.4;100.0;101150;;;;
2022/06/06 05:54:09;;;;;;;1.8;1.8;;;;;;;14.4;100.0;101150;;;;
2022/06/06 05:55:01;;;;;;;1.8;1.8;;;;;;;14.4;100.0;101150;;;;
2022/06/06 05:56:10;;;;;;;1.8;1.8;;;;;;;14.3;100.0;101150;;;;
2022/06/06 05:57:07;;;;;;;1.8;1.8;;;;;;;14.3;100.0;101150;;;;
2022/06/06 05:58:10;;;;;;;1.8;1.8;;;;;;;14.4;100.0;101150;;;;
2022/06/06 05:59:01;;;;;;;1.8;1.8;;;;;;;14.4;100.0;101150;;;;
2022/06/06 06:00:10;;;;;;;2.8;2.1;;;;;;;14.6;100.0;101150;;;;
2022/06/06 06:01:10;;;;;;;2.8;2.1;;;;;;;14.6;100.0;101150;;;;
2022/06/06 06:02:10;;;;;;;2.8;2.1;;;;;;;14.6;100.0;101150;;;;
2022/06/06 06:03:10;;;;;;;2.8;2.1;;;;;;;14.6;100.0;101150;;;;
2022/06/06 06:04:10;;;;;;;2.8;2.1;;;;;;;14.7;100.0;101150;;;;
2022/06/06 06:05:10;;;;;;;2.8;2.1;;;;;;;14.7;100.0;101150;;;;
2022/06/06 06:06:07;;;;;;;2.8;2.1;;;;;;;14.6;100.0;101140;;;;
2022/06/06 06:07:10;;;;;;;2.8;2.1;;;;;;;14.6;100.0;101140;;;;
2022/06/06 06:08:08;;;;;;;2.8;2.1;;;;;;;14.5;100.0;101150;;;;
2022/06/06 06:09:10;;;;;;;2.8;2.1;;;;;;;14.5;100.0;101150;;;;
2022/06/06 06:10:10;;;;;;;2.8;2.1;;;;;;;14.4;100.0;101150;;;;
2022/06/06 06:11:10;;;;;;;2.8;2.1;;;;;;;14.4;100.0;101150;;;;
2022/06/06 06:12:07;;;;;;;2.8;2.1;;;;;;;14.6;100.0;101160;;;;
2022/06/06 06:13:09;;;;;;;2.8;2.1;;;;;;;14.6;100.0;101160;;;;
2022/06/06 06:14:09;;;;;;;2.8;2.1;;;;;;;14.7;100.0;101160;;;;
2022/06/06 06:15:07;;;;;;;2.8;2.1;;;;;;;14.7;100.0;101160;;;;
2022/06/06 06:16:02;;;;;;;2.8;2.1;;;;;;;14.4;100.0;101150;;;;
2022/06/06 06:17:01;;;;;;;2.8;2.1;;;;;;;14.4;100.0;101150;;;;
2022/06/06 06:18:01;;;;;;;2.8;2.1;;;;;;;14.4;100.0;101150;;;;
2022/06/06 06:19:01;;;;;;;2.8;2.1;;;;;;;14.4;100.0;101150;;;;
2022/06/06 06:20:03;;;;;;;0.8;0.8;;;;;;;14.5;100.0;101150;;;;
2022/06/06 06:21:07;;;;;;;0.8;0.8;;;;;;;14.5;100.0;101150;;;;
2022/06/06 06:22:01;;;;;;;0.8;0.8;;;;;;;14.6;100.0;101150;;;;
2022/06/06 06:23:05;;;;;;;0.8;0.8;;;;;;;14.6;100.0;101150;;;;
2022/06/06 06:24:04;;;;;;;0.8;0.8;;;;;;;14.7;100.0;101160;;;;
2022/06/06 06:25:01;;;;;;;0.8;0.8;;;;;;;14.7;100.0;101160;;;;
2022/06/06 06:26:03;;;;;;;0.8;0.8;;;;;;;14.7;100.0;101160;;;;
2022/06/06 06:27:01;;;;;;;0.8;0.8;;;;;;;14.7;100.0;101160;;;;
2022/06/06 06:28:05;;;;;;;0.8;0.8;;;;;;;14.8;100.0;101160;;;;
2022/06/06 06:29:02;;;;;;;0.8;0.8;;;;;;;14.8;100.0;101160;;;;
2022/06/06 06:30:00;;;;;;;0.8;0.8;;;;;;;14.8;100.0;101150;;;;